sensor_id;sensor_type;location;lat;lon;timestamp;noise_LAeq;noise_LA_min;noise_LA_max;noise_LA01;noise_LA95
58251;Laerm;51449;51.676;5.812;2023-01-10T00:00:38;62.19;28.83;80.37;;
58251;Laerm;51449;51.676;5.812;2023-01-10T00:03:05;54.62;29.49;69.86;;
58251;Laerm;51449;51.676;5.812;2023-01-10T00:05:29;31.38;28.00;43.76;;
58251;Laerm;51449;51.676;5.812;2023-01-10T00:07:51;32.56;28.85;44.87;;
58251;Laerm;51449;51.676;5.812;2023-01-10T00:10:13;57.73;29.22;72.90;;
58251;Laerm;51449;51.676;5.812;2023-01-10T00:12:35;60.24;29.89;75.11;;
58251;Laerm;51449;51.676;5.812;2023-01-10T00:15:16;49.63;29.63;71.21;;
58251;Laerm;51449;51.676;5.812;2023-01-10T00:17:38;58.93;29.51;73.68;;
58251;Laerm;51449;51.676;5.812;2023-01-10T00:20:00;32.63;29.61;48.72;;
58251;Laerm;51449;51.676;5.812;2023-01-10T00:22:22;32.36;29.01;41.37;;
58251;Laerm;51449;51.676;5.812;2023-01-10T00:24:46;31.58;28.71;47.74;;
58251;Laerm;51449;51.676;5.812;2023-01-10T00:27:08;31.65;29.13;43.14;;
58251;Laerm;51449;51.676;5.812;2023-01-10T00:29:32;33.36;29.50;49.94;;
58251;Laerm;51449;51.676;5.812;2023-01-10T00:31:56;55.68;31.34;71.89;;
58251;Laerm;51449;51.676;5.812;2023-01-10T00:34:18;57.10;31.41;73.16;;
58251;Laerm;51449;51.676;5.812;2023-01-10T00:36:41;35.43;30.60;46.66;;
58251;Laerm;51449;51.676;5.812;2023-01-10T00:39:03;33.72;30.20;46.41;;
58251;Laerm;51449;51.676;5.812;2023-01-10T00:41:25;51.67;32.10;68.79;;
58251;Laerm;51449;51.676;5.812;2023-01-10T00:44:16;33.26;29.21;46.91;;
58251;Laerm;51449;51.676;5.812;2023-01-10T00:46:38;53.59;28.72;70.73;;
58251;Laerm;51449;51.676;5.812;2023-01-10T00:49:01;32.41;29.30;44.14;;
58251;Laerm;51449;51.676;5.812;2023-01-10T00:51:26;31.88;28.63;47.41;;
58251;Laerm;51449;51.676;5.812;2023-01-10T00:53:48;57.18;29.92;71.58;;
58251;Laerm;51449;51.676;5.812;2023-01-10T00:56:10;54.39;30.64;67.51;;
58251;Laerm;51449;51.676;5.812;2023-01-10T00:58:32;34.35;30.82;43.70;;
58251;Laerm;51449;51.676;5.812;2023-01-10T01:00:54;36.02;30.29;57.12;;
58251;Laerm;51449;51.676;5.812;2023-01-10T01:03:18;53.32;30.51;70.05;;
58251;Laerm;51449;51.676;5.812;2023-01-10T01:05:43;34.30;29.52;52.98;;
58251;Laerm;51449;51.676;5.812;2023-01-10T01:08:05;51.87;31.63;68.10;;
58251;Laerm;51449;51.676;5.812;2023-01-10T01:10:27;34.18;29.46;45.86;;
58251;Laerm;51449;51.676;5.812;2023-01-10T01:12:49;31.81;28.16;45.52;;
58251;Laerm;51449;51.676;5.812;2023-01-10T01:15:11;50.47;28.86;68.55;;
58251;Laerm;51449;51.676;5.812;2023-01-10T01:17:33;33.88;29.34;49.51;;
58251;Laerm;51449;51.676;5.812;2023-01-10T01:19:55;61.23;29.61;75.42;;
58251;Laerm;51449;51.676;5.812;2023-01-10T01:22:18;31.35;28.55;48.29;;
58251;Laerm;51449;51.676;5.812;2023-01-10T01:24:41;31.24;27.96;51.17;;
58251;Laerm;51449;51.676;5.812;2023-01-10T01:27:03;55.70;29.51;72.23;;
58251;Laerm;51449;51.676;5.812;2023-01-10T01:29:25;60.28;30.24;75.92;;
58251;Laerm;51449;51.676;5.812;2023-01-10T01:32:03;55.95;29.37;70.35;;
58251;Laerm;51449;51.676;5.812;2023-01-10T01:34:25;59.11;33.13;73.33;;
58251;Laerm;51449;51.676;5.812;2023-01-10T01:36:47;34.32;30.90;47.02;;
58251;Laerm;51449;51.676;5.812;2023-01-10T01:39:09;32.59;28.67;46.96;;
58251;Laerm;51449;51.676;5.812;2023-01-10T01:41:31;51.84;28.59;69.62;;
58251;Laerm;51449;51.676;5.812;2023-01-10T01:44:16;50.66;30.11;67.94;;
58251;Laerm;51449;51.676;5.812;2023-01-10T01:46:39;53.28;30.61;71.88;;
58251;Laerm;51449;51.676;5.812;2023-01-10T01:49:05;54.16;29.77;73.54;;
58251;Laerm;51449;51.676;5.812;2023-01-10T01:51:33;33.18;28.78;53.95;;
58251;Laerm;51449;51.676;5.812;2023-01-10T01:54:02;33.88;29.57;46.72;;
58251;Laerm;51449;51.676;5.812;2023-01-10T01:56:36;59.00;31.46;76.89;;
58251;Laerm;51449;51.676;5.812;2023-01-10T01:59:35;57.88;31.05;74.12;;
58251;Laerm;51449;51.676;5.812;2023-01-10T02:02:11;38.87;29.37;54.49;;
58251;Laerm;51449;51.676;5.812;2023-01-10T02:05:02;52.40;30.64;69.67;;
58251;Laerm;51449;51.676;5.812;2023-01-10T02:07:34;60.26;32.26;72.30;;
58251;Laerm;51449;51.676;5.812;2023-01-10T02:10:10;37.44;30.98;48.65;;
58251;Laerm;51449;51.676;5.812;2023-01-10T02:12:33;54.47;30.99;70.35;;
58251;Laerm;51449;51.676;5.812;2023-01-10T02:14:58;57.49;30.40;75.09;;
58251;Laerm;51449;51.676;5.812;2023-01-10T02:17:20;57.49;29.66;78.47;;
58251;Laerm;51449;51.676;5.812;2023-01-10T02:19:52;55.67;29.68;75.60;;
58251;Laerm;51449;51.676;5.812;2023-01-10T02:34:34;50.19;30.54;69.00;;
58251;Laerm;51449;51.676;5.812;2023-01-10T02:37:18;56.49;30.21;72.09;;
58251;Laerm;51449;51.676;5.812;2023-01-10T02:42:54;57.82;32.49;73.71;;
58251;Laerm;51449;51.676;5.812;2023-01-10T02:45:39;59.08;32.03;75.64;;
58251;Laerm;51449;51.676;5.812;2023-01-10T02:48:03;37.30;30.47;53.00;;
58251;Laerm;51449;51.676;5.812;2023-01-10T02:50:29;62.88;32.03;76.58;;
58251;Laerm;51449;51.676;5.812;2023-01-10T02:52:56;34.32;30.75;43.46;;
58251;Laerm;51449;51.676;5.812;2023-01-10T02:55:33;55.55;31.88;69.53;;
58251;Laerm;51449;51.676;5.812;2023-01-10T03:00:44;56.48;33.22;70.75;;
58251;Laerm;51449;51.676;5.812;2023-01-10T03:03:23;60.52;31.97;75.58;;
58251;Laerm;51449;51.676;5.812;2023-01-10T03:06:04;59.27;33.34;75.53;;
58251;Laerm;51449;51.676;5.812;2023-01-10T03:08:55;59.71;30.82;75.90;;
58251;Laerm;51449;51.676;5.812;2023-01-10T03:11:22;51.44;30.78;67.38;;
58251;Laerm;51449;51.676;5.812;2023-01-10T03:14:02;59.42;31.87;77.25;;
58251;Laerm;51449;51.676;5.812;2023-01-10T03:16:28;58.14;34.57;72.89;;
58251;Laerm;51449;51.676;5.812;2023-01-10T03:19:05;58.35;30.22;74.80;;
58251;Laerm;51449;51.676;5.812;2023-01-10T03:21:31;34.70;31.20;41.36;;
58251;Laerm;51449;51.676;5.812;2023-01-10T03:24:05;60.64;34.28;76.68;;
58251;Laerm;51449;51.676;5.812;2023-01-10T03:26:48;62.10;34.09;78.28;;
58251;Laerm;51449;51.676;5.812;2023-01-10T03:29:20;55.56;31.74;70.30;;
58251;Laerm;51449;51.676;5.812;2023-01-10T03:31:56;62.78;34.80;76.21;;
58251;Laerm;51449;51.676;5.812;2023-01-10T03:34:22;59.88;31.96;79.86;;
58251;Laerm;51449;51.676;5.812;2023-01-10T03:39:47;60.95;35.08;78.51;;
58251;Laerm;51449;51.676;5.812;2023-01-10T03:45:41;59.67;32.21;74.24;;
58251;Laerm;51449;51.676;5.812;2023-01-10T03:48:07;63.02;34.03;77.59;;
58251;Laerm;51449;51.676;5.812;2023-01-10T03:50:33;61.67;34.54;74.67;;
58251;Laerm;51449;51.676;5.812;2023-01-10T03:52:56;51.33;33.30;68.84;;
58251;Laerm;51449;51.676;5.812;2023-01-10T03:55:26;60.25;33.01;74.89;;
58251;Laerm;51449;51.676;5.812;2023-01-10T03:57:49;61.52;34.05;75.81;;
58251;Laerm;51449;51.676;5.812;2023-01-10T04:00:13;53.47;30.93;71.04;;
58251;Laerm;51449;51.676;5.812;2023-01-10T04:02:35;59.68;33.52;73.77;;
58251;Laerm;51449;51.676;5.812;2023-01-10T04:04:58;62.15;38.20;75.64;;
58251;Laerm;51449;51.676;5.812;2023-01-10T04:07:20;61.67;33.91;77.52;;
58251;Laerm;51449;51.676;5.812;2023-01-10T04:09:42;59.91;33.85;72.55;;
58251;Laerm;51449;51.676;5.812;2023-01-10T04:12:04;60.08;33.52;74.40;;
58251;Laerm;51449;51.676;5.812;2023-01-10T04:14:27;61.40;37.39;73.78;;
58251;Laerm;51449;51.676;5.812;2023-01-10T04:16:49;64.13;38.94;74.50;;
58251;Laerm;51449;51.676;5.812;2023-01-10T04:19:11;62.14;35.23;76.31;;
58251;Laerm;51449;51.676;5.812;2023-01-10T04:21:33;63.52;36.14;76.51;;
58251;Laerm;51449;51.676;5.812;2023-01-10T04:23:54;63.86;41.47;74.94;;
58251;Laerm;51449;51.676;5.812;2023-01-10T04:26:16;62.14;34.89;75.92;;
58251;Laerm;51449;51.676;5.812;2023-01-10T04:28:38;60.18;36.91;71.59;;
58251;Laerm;51449;51.676;5.812;2023-01-10T04:31:01;63.48;39.87;73.44;;
58251;Laerm;51449;51.676;5.812;2023-01-10T04:33:22;65.77;39.31;75.60;;
58251;Laerm;51449;51.676;5.812;2023-01-10T04:35:49;60.70;35.20;74.36;;
58251;Laerm;51449;51.676;5.812;2023-01-10T04:38:12;65.04;37.64;75.69;;
58251;Laerm;51449;51.676;5.812;2023-01-10T04:40:34;60.72;37.98;72.74;;
58251;Laerm;51449;51.676;5.812;2023-01-10T04:42:56;64.64;39.52;76.33;;
58251;Laerm;51449;51.676;5.812;2023-01-10T04:45:18;62.78;35.59;75.03;;
58251;Laerm;51449;51.676;5.812;2023-01-10T04:47:40;59.64;35.83;76.25;;
58251;Laerm;51449;51.676;5.812;2023-01-10T04:50:03;63.30;36.51;74.97;;
58251;Laerm;51449;51.676;5.812;2023-01-10T04:52:25;60.23;37.45;74.03;;
58251;Laerm;51449;51.676;5.812;2023-01-10T04:54:48;62.54;38.64;76.64;;
58251;Laerm;51449;51.676;5.812;2023-01-10T04:57:10;62.56;39.56;74.71;;
58251;Laerm;51449;51.676;5.812;2023-01-10T04:59:32;61.85;37.55;78.16;;
58251;Laerm;51449;51.676;5.812;2023-01-10T05:01:56;63.47;38.83;75.42;;
58251;Laerm;51449;51.676;5.812;2023-01-10T05:04:18;66.08;42.55;75.71;;
58251;Laerm;51449;51.676;5.812;2023-01-10T05:06:41;58.96;36.85;69.93;;
58251;Laerm;51449;51.676;5.812;2023-01-10T05:09:03;64.92;40.31;74.73;;
58251;Laerm;51449;51.676;5.812;2023-01-10T05:11:26;65.22;43.41;76.14;;
58251;Laerm;51449;51.676;5.812;2023-01-10T05:13:48;66.43;41.86;74.98;;
58251;Laerm;51449;51.676;5.812;2023-01-10T05:16:10;66.67;45.60;79.06;;
58251;Laerm;51449;51.676;5.812;2023-01-10T05:18:32;65.88;42.19;74.93;;
58251;Laerm;51449;51.676;5.812;2023-01-10T05:21:08;65.57;40.79;74.27;;
58251;Laerm;51449;51.676;5.812;2023-01-10T05:23:30;63.24;43.42;73.62;;
58251;Laerm;51449;51.676;5.812;2023-01-10T05:25:52;66.30;41.95;78.93;;
58251;Laerm;51449;51.676;5.812;2023-01-10T05:28:14;65.39;42.13;78.45;;
58251;Laerm;51449;51.676;5.812;2023-01-10T05:30:36;66.13;42.85;76.94;;
58251;Laerm;51449;51.676;5.812;2023-01-10T05:32:58;66.53;43.57;75.69;;
58251;Laerm;51449;51.676;5.812;2023-01-10T05:35:20;63.45;40.75;73.62;;
58251;Laerm;51449;51.676;5.812;2023-01-10T05:37:42;66.79;46.81;74.40;;
58251;Laerm;51449;51.676;5.812;2023-01-10T05:40:05;68.18;49.49;75.40;;
58251;Laerm;51449;51.676;5.812;2023-01-10T05:42:28;67.01;47.71;74.35;;
58251;Laerm;51449;51.676;5.812;2023-01-10T05:44:50;66.85;43.21;76.67;;
58251;Laerm;51449;51.676;5.812;2023-01-10T05:47:12;70.03;42.94;86.65;;
58251;Laerm;51449;51.676;5.812;2023-01-10T05:49:33;67.58;53.77;85.65;;
58251;Laerm;51449;51.676;5.812;2023-01-10T05:51:55;66.72;48.08;76.13;;
58251;Laerm;51449;51.676;5.812;2023-01-10T05:54:18;66.83;47.72;76.14;;
58251;Laerm;51449;51.676;5.812;2023-01-10T05:56:39;65.59;43.70;76.11;;
58251;Laerm;51449;51.676;5.812;2023-01-10T05:59:01;66.34;46.92;74.15;;
58251;Laerm;51449;51.676;5.812;2023-01-10T06:01:37;69.71;44.55;78.85;;
58251;Laerm;51449;51.676;5.812;2023-01-10T06:03:59;66.84;48.28;78.01;;
58251;Laerm;51449;51.676;5.812;2023-01-10T06:06:21;67.21;48.05;74.40;;
58251;Laerm;51449;51.676;5.812;2023-01-10T06:08:43;65.78;48.70;75.35;;
58251;Laerm;51449;51.676;5.812;2023-01-10T06:11:06;68.09;56.50;76.31;;
58251;Laerm;51449;51.676;5.812;2023-01-10T06:13:28;67.52;43.99;78.12;;
58251;Laerm;51449;51.676;5.812;2023-01-10T06:15:50;67.42;57.05;75.26;;
58251;Laerm;51449;51.676;5.812;2023-01-10T06:18:13;67.44;47.39;75.49;;
58251;Laerm;51449;51.676;5.812;2023-01-10T06:20:35;67.14;50.13;77.54;;
58251;Laerm;51449;51.676;5.812;2023-01-10T06:22:57;65.85;49.72;73.27;;
58251;Laerm;51449;51.676;5.812;2023-01-10T06:25:23;67.19;45.72;74.42;;
58251;Laerm;51449;51.676;5.812;2023-01-10T06:27:45;68.48;51.40;75.88;;
58251;Laerm;51449;51.676;5.812;2023-01-10T06:30:11;68.97;49.84;79.54;;
58251;Laerm;51449;51.676;5.812;2023-01-10T06:32:34;67.03;45.91;75.59;;
58251;Laerm;51449;51.676;5.812;2023-01-10T06:34:56;68.31;45.86;77.58;;
58251;Laerm;51449;51.676;5.812;2023-01-10T06:37:18;68.23;48.20;77.09;;
58251;Laerm;51449;51.676;5.812;2023-01-10T06:39:41;69.51;53.78;81.37;;
58251;Laerm;51449;51.676;5.812;2023-01-10T06:42:03;67.47;45.74;74.71;;
58251;Laerm;51449;51.676;5.812;2023-01-10T06:44:24;67.49;50.82;74.68;;
58251;Laerm;51449;51.676;5.812;2023-01-10T06:46:47;68.57;49.30;76.81;;
58251;Laerm;51449;51.676;5.812;2023-01-10T06:49:09;68.35;45.42;75.73;;
58251;Laerm;51449;51.676;5.812;2023-01-10T06:51:31;67.86;44.55;78.21;;
58251;Laerm;51449;51.676;5.812;2023-01-10T06:53:53;69.66;49.12;80.70;;
58251;Laerm;51449;51.676;5.812;2023-01-10T06:56:15;67.41;51.48;75.26;;
58251;Laerm;51449;51.676;5.812;2023-01-10T06:58:37;67.54;44.34;78.00;;
58251;Laerm;51449;51.676;5.812;2023-01-10T07:00:59;69.63;42.48;80.55;;
58251;Laerm;51449;51.676;5.812;2023-01-10T07:03:21;65.10;45.39;73.51;;
58251;Laerm;51449;51.676;5.812;2023-01-10T07:05:43;67.54;49.28;75.88;;
58251;Laerm;51449;51.676;5.812;2023-01-10T07:08:06;67.02;53.36;76.47;;
58251;Laerm;51449;51.676;5.812;2023-01-10T07:10:28;63.61;42.55;74.56;;
58251;Laerm;51449;51.676;5.812;2023-01-10T07:12:50;68.86;51.93;81.26;;
58251;Laerm;51449;51.676;5.812;2023-01-10T07:15:12;67.29;50.56;78.59;;
58251;Laerm;51449;51.676;5.812;2023-01-10T07:17:34;67.44;51.04;77.37;;
58251;Laerm;51449;51.676;5.812;2023-01-10T07:19:56;66.75;43.46;75.75;;
58251;Laerm;51449;51.676;5.812;2023-01-10T07:22:18;65.31;47.48;79.76;;
58251;Laerm;51449;51.676;5.812;2023-01-10T07:24:40;67.64;50.64;80.67;;
58251;Laerm;51449;51.676;5.812;2023-01-10T07:27:02;66.90;50.57;81.60;;
58251;Laerm;51449;51.676;5.812;2023-01-10T07:29:24;67.57;47.73;77.46;;
58251;Laerm;51449;51.676;5.812;2023-01-10T07:31:46;67.99;52.25;81.31;;
58251;Laerm;51449;51.676;5.812;2023-01-10T07:34:08;66.31;46.12;77.91;;
58251;Laerm;51449;51.676;5.812;2023-01-10T07:36:30;68.27;51.47;79.28;;
58251;Laerm;51449;51.676;5.812;2023-01-10T07:38:52;66.95;42.54;76.72;;
58251;Laerm;51449;51.676;5.812;2023-01-10T07:41:15;69.45;44.31;80.71;;
58251;Laerm;51449;51.676;5.812;2023-01-10T07:43:38;68.96;51.24;78.74;;
58251;Laerm;51449;51.676;5.812;2023-01-10T07:46:02;65.83;44.05;78.31;;
58251;Laerm;51449;51.676;5.812;2023-01-10T07:48:25;68.08;52.38;78.04;;
58251;Laerm;51449;51.676;5.812;2023-01-10T07:50:47;67.11;44.48;78.87;;
58251;Laerm;51449;51.676;5.812;2023-01-10T07:53:10;67.23;43.80;80.81;;
58251;Laerm;51449;51.676;5.812;2023-01-10T07:55:32;66.04;49.92;74.62;;
58251;Laerm;51449;51.676;5.812;2023-01-10T07:57:56;66.93;46.69;77.50;;
58251;Laerm;51449;51.676;5.812;2023-01-10T08:00:19;65.35;45.63;74.76;;
58251;Laerm;51449;51.676;5.812;2023-01-10T08:02:41;65.33;43.57;74.26;;
58251;Laerm;51449;51.676;5.812;2023-01-10T08:05:03;63.74;39.48;73.20;;
58251;Laerm;51449;51.676;5.812;2023-01-10T08:07:28;65.99;47.41;79.65;;
58251;Laerm;51449;51.676;5.812;2023-01-10T08:09:50;67.87;42.01;76.50;;
58251;Laerm;51449;51.676;5.812;2023-01-10T08:12:12;66.03;48.97;78.04;;
58251;Laerm;51449;51.676;5.812;2023-01-10T08:14:34;64.99;48.55;74.31;;
58251;Laerm;51449;51.676;5.812;2023-01-10T08:16:56;64.92;41.94;75.98;;
58251;Laerm;51449;51.676;5.812;2023-01-10T08:19:18;66.96;48.63;76.37;;
58251;Laerm;51449;51.676;5.812;2023-01-10T08:21:41;67.16;41.39;75.88;;
58251;Laerm;51449;51.676;5.812;2023-01-10T08:24:03;66.34;41.83;78.24;;
58251;Laerm;51449;51.676;5.812;2023-01-10T08:26:25;65.39;42.45;74.83;;
58251;Laerm;51449;51.676;5.812;2023-01-10T08:28:47;64.43;44.11;78.88;;
58251;Laerm;51449;51.676;5.812;2023-01-10T08:31:10;65.74;43.11;76.34;;
58251;Laerm;51449;51.676;5.812;2023-01-10T08:33:32;65.32;45.44;75.08;;
58251;Laerm;51449;51.676;5.812;2023-01-10T08:35:54;62.68;43.63;72.61;;
58251;Laerm;51449;51.676;5.812;2023-01-10T08:38:16;64.06;41.49;73.83;;
58251;Laerm;51449;51.676;5.812;2023-01-10T08:40:38;64.17;44.46;72.74;;
58251;Laerm;51449;51.676;5.812;2023-01-10T08:43:06;67.44;52.82;75.13;;
58251;Laerm;51449;51.676;5.812;2023-01-10T08:45:29;66.66;54.08;76.71;;
58251;Laerm;51449;51.676;5.812;2023-01-10T08:47:52;66.65;47.12;79.34;;
58251;Laerm;51449;51.676;5.812;2023-01-10T08:50:15;65.01;46.46;73.85;;
58251;Laerm;51449;51.676;5.812;2023-01-10T08:52:37;64.00;41.29;76.15;;
58251;Laerm;51449;51.676;5.812;2023-01-10T08:54:59;66.22;43.14;80.26;;
58251;Laerm;51449;51.676;5.812;2023-01-10T08:57:21;67.23;42.01;74.93;;
58251;Laerm;51449;51.676;5.812;2023-01-10T08:59:43;67.18;43.53;78.58;;
58251;Laerm;51449;51.676;5.812;2023-01-10T09:02:05;65.51;40.00;77.32;;
58251;Laerm;51449;51.676;5.812;2023-01-10T09:04:29;64.97;46.98;76.66;;
58251;Laerm;51449;51.676;5.812;2023-01-10T09:06:54;65.98;45.61;77.83;;
58251;Laerm;51449;51.676;5.812;2023-01-10T09:09:16;65.25;44.00;74.52;;
58251;Laerm;51449;51.676;5.812;2023-01-10T09:11:38;65.79;43.37;72.91;;
58251;Laerm;51449;51.676;5.812;2023-01-10T09:14:02;65.59;43.24;78.81;;
58251;Laerm;51449;51.676;5.812;2023-01-10T09:16:24;64.21;42.21;74.14;;
58251;Laerm;51449;51.676;5.812;2023-01-10T09:18:46;66.36;41.67;79.65;;
58251;Laerm;51449;51.676;5.812;2023-01-10T09:21:08;65.02;47.76;73.84;;
58251;Laerm;51449;51.676;5.812;2023-01-10T09:23:30;66.83;45.68;77.06;;
58251;Laerm;51449;51.676;5.812;2023-01-10T09:25:54;63.44;44.44;79.72;;
58251;Laerm;51449;51.676;5.812;2023-01-10T09:28:20;66.09;50.20;76.88;;
58251;Laerm;51449;51.676;5.812;2023-01-10T09:30:43;69.01;47.75;83.38;;
58251;Laerm;51449;51.676;5.812;2023-01-10T09:33:06;64.87;44.09;74.29;;
58251;Laerm;51449;51.676;5.812;2023-01-10T09:35:30;67.72;53.52;81.38;;
58251;Laerm;51449;51.676;5.812;2023-01-10T09:37:54;66.75;41.53;79.70;;
58251;Laerm;51449;51.676;5.812;2023-01-10T09:51:45;65.42;40.78;77.30;;
58251;Laerm;51449;51.676;5.812;2023-01-10T09:54:22;66.78;44.79;76.22;;
58251;Laerm;51449;51.676;5.812;2023-01-10T09:56:46;66.22;43.98;75.83;;
58251;Laerm;51449;51.676;5.812;2023-01-10T09:59:17;64.27;42.71;76.98;;
58251;Laerm;51449;51.676;5.812;2023-01-10T10:01:40;66.29;48.45;79.87;;
58251;Laerm;51449;51.676;5.812;2023-01-10T10:04:34;81.60;41.40;104.38;;
58251;Laerm;51449;51.676;5.812;2023-01-10T10:06:57;66.03;44.54;82.18;;
58251;Laerm;51449;51.676;5.812;2023-01-10T10:09:25;66.61;45.05;78.36;;
58251;Laerm;51449;51.676;5.812;2023-01-10T10:15:45;64.28;41.69;76.07;;
58251;Laerm;51449;51.676;5.812;2023-01-10T10:21:02;64.56;41.09;75.12;;
58251;Laerm;51449;51.676;5.812;2023-01-10T10:24:00;63.59;41.95;75.59;;
58251;Laerm;51449;51.676;5.812;2023-01-10T10:26:57;64.01;43.34;75.65;;
58251;Laerm;51449;51.676;5.812;2023-01-10T10:29:40;64.37;41.06;79.90;;
58251;Laerm;51449;51.676;5.812;2023-01-10T10:32:51;64.13;49.32;77.66;;
58251;Laerm;51449;51.676;5.812;2023-01-10T10:35:39;64.71;43.69;75.09;;
58251;Laerm;51449;51.676;5.812;2023-01-10T10:38:19;65.40;41.40;76.01;;
58251;Laerm;51449;51.676;5.812;2023-01-10T10:40:47;62.96;40.65;72.84;;
58251;Laerm;51449;51.676;5.812;2023-01-10T10:43:20;66.17;40.76;75.68;;
58251;Laerm;51449;51.676;5.812;2023-01-10T10:46:12;65.70;48.66;77.77;;
58251;Laerm;51449;51.676;5.812;2023-01-10T10:49:13;66.89;53.30;78.31;;
58251;Laerm;51449;51.676;5.812;2023-01-10T10:51:52;66.66;43.16;77.48;;
58251;Laerm;51449;51.676;5.812;2023-01-10T10:54:15;64.14;43.63;75.57;;
58251;Laerm;51449;51.676;5.812;2023-01-10T10:56:37;66.24;43.96;79.54;;
58251;Laerm;51449;51.676;5.812;2023-01-10T10:58:59;67.10;46.32;75.31;;
58251;Laerm;51449;51.676;5.812;2023-01-10T11:01:22;67.26;51.38;75.90;;
58251;Laerm;51449;51.676;5.812;2023-01-10T11:06:16;64.97;45.18;75.63;;
58251;Laerm;51449;51.676;5.812;2023-01-10T11:08:44;64.59;47.56;74.46;;
58251;Laerm;51449;51.676;5.812;2023-01-10T11:11:21;66.60;42.38;82.76;;
58251;Laerm;51449;51.676;5.812;2023-01-10T11:13:53;65.71;41.93;74.38;;
58251;Laerm;51449;51.676;5.812;2023-01-10T11:16:37;63.04;45.36;74.53;;
58251;Laerm;51449;51.676;5.812;2023-01-10T11:21:40;65.06;50.57;75.29;;
58251;Laerm;51449;51.676;5.812;2023-01-10T11:24:35;64.47;41.17;74.12;;
58251;Laerm;51449;51.676;5.812;2023-01-10T11:27:17;65.49;41.53;75.17;;
58251;Laerm;51449;51.676;5.812;2023-01-10T11:30:18;66.54;41.75;76.43;;
58251;Laerm;51449;51.676;5.812;2023-01-10T11:32:54;68.08;47.83;87.08;;
58251;Laerm;51449;51.676;5.812;2023-01-10T11:35:29;66.09;44.53;72.93;;
58251;Laerm;51449;51.676;5.812;2023-01-10T11:38:06;65.64;43.54;74.80;;
58251;Laerm;51449;51.676;5.812;2023-01-10T11:40:58;63.64;42.85;72.59;;
58251;Laerm;51449;51.676;5.812;2023-01-10T11:43:35;65.77;46.53;76.52;;
58251;Laerm;51449;51.676;5.812;2023-01-10T11:46:14;64.93;42.74;74.26;;
58251;Laerm;51449;51.676;5.812;2023-01-10T11:48:52;64.27;43.09;75.22;;
58251;Laerm;51449;51.676;5.812;2023-01-10T11:51:43;66.03;45.57;76.54;;
58251;Laerm;51449;51.676;5.812;2023-01-10T11:54:14;64.08;39.77;75.92;;
58251;Laerm;51449;51.676;5.812;2023-01-10T11:56:38;64.64;43.19;73.89;;
58251;Laerm;51449;51.676;5.812;2023-01-10T11:59:14;60.62;39.59;70.99;;
58251;Laerm;51449;51.676;5.812;2023-01-10T12:01:56;66.61;44.25;75.30;;
58251;Laerm;51449;51.676;5.812;2023-01-10T12:04:21;63.93;40.87;72.27;;
58251;Laerm;51449;51.676;5.812;2023-01-10T12:06:49;66.06;40.10;80.82;;
58251;Laerm;51449;51.676;5.812;2023-01-10T12:12:02;67.51;54.08;75.43;;
58251;Laerm;51449;51.676;5.812;2023-01-10T12:14:26;67.15;43.43;78.00;;
58251;Laerm;51449;51.676;5.812;2023-01-10T12:16:59;66.32;47.37;74.13;;
58251;Laerm;51449;51.676;5.812;2023-01-10T12:19:22;65.59;43.04;75.99;;
58251;Laerm;51449;51.676;5.812;2023-01-10T12:21:44;61.83;39.82;79.01;;
58251;Laerm;51449;51.676;5.812;2023-01-10T12:24:27;66.76;42.77;78.96;;
58251;Laerm;51449;51.676;5.812;2023-01-10T12:26:54;66.41;47.50;74.57;;
58251;Laerm;51449;51.676;5.812;2023-01-10T12:29:26;64.85;42.41;74.80;;
58251;Laerm;51449;51.676;5.812;2023-01-10T12:31:50;64.16;39.91;81.56;;
58251;Laerm;51449;51.676;5.812;2023-01-10T12:34:19;64.65;41.50;74.08;;
58251;Laerm;51449;51.676;5.812;2023-01-10T12:37:04;65.07;48.52;76.84;;
58251;Laerm;51449;51.676;5.812;2023-01-10T12:39:33;65.41;46.86;74.33;;
58251;Laerm;51449;51.676;5.812;2023-01-10T12:42:43;66.54;47.12;84.02;;
58251;Laerm;51449;51.676;5.812;2023-01-10T12:45:29;66.35;45.13;75.34;;
58251;Laerm;51449;51.676;5.812;2023-01-10T12:48:13;66.34;41.19;81.26;;
58251;Laerm;51449;51.676;5.812;2023-01-10T12:50:45;64.80;42.95;75.30;;
58251;Laerm;51449;51.676;5.812;2023-01-10T12:53:38;68.54;44.29;78.67;;
58251;Laerm;51449;51.676;5.812;2023-01-10T12:56:06;66.92;43.98;77.39;;
58251;Laerm;51449;51.676;5.812;2023-01-10T12:58:49;62.96;41.58;82.40;;
58251;Laerm;51449;51.676;5.812;2023-01-10T13:01:31;65.24;43.94;74.79;;
58251;Laerm;51449;51.676;5.812;2023-01-10T13:04:12;64.73;44.48;73.28;;
58251;Laerm;51449;51.676;5.812;2023-01-10T13:06:43;67.65;45.92;75.41;;
58251;Laerm;51449;51.676;5.812;2023-01-10T13:09:19;64.54;42.57;74.69;;
58251;Laerm;51449;51.676;5.812;2023-01-10T13:11:48;66.16;49.74;74.91;;
58251;Laerm;51449;51.676;5.812;2023-01-10T13:14:19;66.60;46.89;76.78;;
58251;Laerm;51449;51.676;5.812;2023-01-10T13:16:51;65.25;51.87;82.25;;
58251;Laerm;51449;51.676;5.812;2023-01-10T13:21:41;63.95;41.25;79.50;;
58251;Laerm;51449;51.676;5.812;2023-01-10T13:24:22;65.01;48.78;78.35;;
58251;Laerm;51449;51.676;5.812;2023-01-10T13:26:59;63.84;46.90;78.48;;
58251;Laerm;51449;51.676;5.812;2023-01-10T13:29:29;69.09;50.26;82.51;;
58251;Laerm;51449;51.676;5.812;2023-01-10T13:32:00;67.41;52.42;79.93;;
58251;Laerm;51449;51.676;5.812;2023-01-10T13:34:34;67.25;47.03;82.70;;
58251;Laerm;51449;51.676;5.812;2023-01-10T13:37:10;65.28;47.02;81.40;;
58251;Laerm;51449;51.676;5.812;2023-01-10T13:39:38;67.16;48.32;86.28;;
58251;Laerm;51449;51.676;5.812;2023-01-10T13:52:43;64.71;45.92;75.44;;
58251;Laerm;51449;51.676;5.812;2023-01-10T13:55:26;65.33;48.24;75.48;;
58251;Laerm;51449;51.676;5.812;2023-01-10T13:57:55;65.93;44.24;77.13;;
58251;Laerm;51449;51.676;5.812;2023-01-10T14:00:24;78.96;48.23;99.75;;
58251;Laerm;51449;51.676;5.812;2023-01-10T14:03:05;67.37;47.71;82.57;;
58251;Laerm;51449;51.676;5.812;2023-01-10T14:05:27;64.12;39.87;75.65;;
58251;Laerm;51449;51.676;5.812;2023-01-10T14:07:52;65.98;47.43;80.92;;
58251;Laerm;51449;51.676;5.812;2023-01-10T14:10:22;63.83;41.97;74.06;;
58251;Laerm;51449;51.676;5.812;2023-01-10T14:12:57;65.62;44.95;85.02;;
58251;Laerm;51449;51.676;5.812;2023-01-10T14:15:25;64.39;44.32;76.42;;
58251;Laerm;51449;51.676;5.812;2023-01-10T14:18:04;62.89;44.59;80.00;;
58251;Laerm;51449;51.676;5.812;2023-01-10T14:20:30;66.65;43.89;79.38;;
58251;Laerm;51449;51.676;5.812;2023-01-10T14:23:17;65.82;43.44;76.72;;
58251;Laerm;51449;51.676;5.812;2023-01-10T14:25:42;82.18;49.12;105.60;;
58251;Laerm;51449;51.676;5.812;2023-01-10T14:28:24;64.91;42.25;75.65;;
58251;Laerm;51449;51.676;5.812;2023-01-10T14:33:22;64.50;49.48;73.89;;
58251;Laerm;51449;51.676;5.812;2023-01-10T14:35:49;68.51;52.69;79.41;;
58251;Laerm;51449;51.676;5.812;2023-01-10T14:40:50;66.37;50.79;78.70;;
58251;Laerm;51449;51.676;5.812;2023-01-10T14:43:23;67.19;50.22;78.36;;
58251;Laerm;51449;51.676;5.812;2023-01-10T14:46:14;68.60;48.49;78.39;;
58251;Laerm;51449;51.676;5.812;2023-01-10T14:48:49;69.30;51.12;78.94;;
58251;Laerm;51449;51.676;5.812;2023-01-10T14:53:43;67.21;47.16;76.26;;
58251;Laerm;51449;51.676;5.812;2023-01-10T14:56:22;68.16;49.76;78.84;;
58251;Laerm;51449;51.676;5.812;2023-01-10T14:58:44;68.37;48.67;77.07;;